首页
METAR-TAF:

METAR-TAF

机场 :

丹佛國際機場

丹佛, 科羅拉多州, 美国

纬度: 39-49-58N, 经度: 104-39-27W, 海拔: 1655米

当前天气观测

该预报发布于18分钟前的16:53 UTC
风速6节,风向西
温度 2°C
湿度 47%
气压 1013 hPa
能見度: 16.1公里
少量云层高于7000英尺
散云层高于12000英尺
多云层高于20000英尺

METAR: KDEN 161653Z 26006KT 10SM FEW070 SCT120 BKN200 02/M08 A2992 RMK AO2 SLP142 T00171078

时间: 10:11 (17:11 UTC)

预报

该预报发布于2小时和9分钟前的15:02 UTC
预报有效从16日的 15点(UTC)到 17日的 18点(UTC)
风速7节,风向西
能見度: 10公里
多云层高于12000英尺
多云层高于18000英尺
从 16日的 2000点(UTC)
风速9节,风向西转西北
能見度: 10公里
散云层高于10000英尺
阴天层高于18000英尺
从 17日的 0200点(UTC)
风速6节,风向西转西南
能見度: 10公里
散云层高于23000英尺

TAF: KDEN 161502Z 1615/1718 26007KT P6SM BKN120 BKN180 FM162000 30009KT P6SM SCT100 OVC180 FM170200 24006KT P6SM SCT230

超过4000个机场的气象观测和天气预报(METAR&TAF报告)。

可查询的气象台以黄色和红色小点在地图上表示。

将鼠标移到小点上方,可查看气象台名称。

然后点击查看天气观测和预报。

如需切换地图:点击带黑十字的绿色按钮放大地图;点击带横线的绿色按钮缩小地图;或者点击绿色箭头查看邻近地区的地图。


METAR-TAF: